Time;durP1;ratioP1;P1;durP2;ratioP2;P2;SDS_P1;SDS_P2;PMS_P1;PMS_P2;Temp;Humidity;BMP_temperature;BMP_pressure;BME280_temperature;BME280_humidity;BME280_pressure;Samples;Min_cycle;Max_cycle;Signal;HPM_P1;HPM_P2
2021/09/08 00:00:45;;;;;;;6.17;5.57;;;20.90;99.90;;;;;;5055821;28;20736;-76
2021/09/08 00:03:10;;;;;;;6.30;5.70;;;20.90;99.90;;;;;;5073529;28;20168;-77
2021/09/08 00:05:37;;;;;;;6.23;5.63;;;20.90;99.90;;;;;;5073345;28;20687;-77
2021/09/08 00:08:03;;;;;;;7.20;5.83;;;20.90;99.90;;;;;;5071649;28;20575;-77
2021/09/08 00:10:30;;;;;;;6.70;6.07;;;20.80;99.90;;;;;;5072187;28;20171;-77
2021/09/08 00:12:56;;;;;;;6.10;5.50;;;20.80;99.90;;;;;;5073100;28;20558;-76
2021/09/08 00:15:22;;;;;;;7.73;6.50;;;20.80;99.90;;;;;;5073064;28;20930;-76
2021/09/08 00:17:48;;;;;;;5.80;5.30;;;20.80;99.90;;;;;;5072925;28;20923;-76
2021/09/08 00:20:15;;;;;;;8.00;6.57;;;20.80;99.90;;;;;;5073390;28;20662;-76
2021/09/08 00:22:42;;;;;;;8.10;6.10;;;20.80;99.90;;;;;;5073144;28;20559;-76
2021/09/08 00:25:09;;;;;;;7.93;6.80;;;20.80;99.90;;;;;;5072756;28;21025;-76
2021/09/08 00:27:35;;;;;;;8.27;6.03;;;20.70;99.90;;;;;;5076645;28;20578;-76
2021/09/08 00:30:00;;;;;;;7.40;6.37;;;20.70;99.90;;;;;;5077388;28;20578;-76
2021/09/08 00:32:26;;;;;;;6.37;5.77;;;20.70;99.90;;;;;;5078229;28;20574;-76
2021/09/08 00:34:53;;;;;;;6.47;5.30;;;20.70;99.90;;;;;;5079301;28;20299;-75
2021/09/08 00:37:19;;;;;;;9.23;6.70;;;20.60;99.90;;;;;;5078978;28;20598;-76
2021/09/08 00:39:44;;;;;;;5.57;5.00;;;20.60;99.90;;;;;;5071725;28;20161;-76
2021/09/08 00:42:15;;;;;;;6.83;5.80;;;20.60;99.90;;;;;;5072288;28;20164;-76
2021/09/08 00:44:42;;;;;;;6.20;5.43;;;20.60;99.90;;;;;;5071209;28;20603;-76
2021/09/08 00:47:15;;;;;;;5.43;4.93;;;20.60;99.90;;;;;;5072050;28;20618;-76
2021/09/08 00:49:45;;;;;;;5.67;4.93;;;20.50;99.90;;;;;;5072333;28;20567;-77
2021/09/08 00:52:12;;;;;;;6.93;5.70;;;20.60;99.90;;;;;;5072523;28;20563;-77
2021/09/08 00:54:40;;;;;;;7.33;5.40;;;20.50;99.90;;;;;;5070868;28;20621;-74
2021/09/08 00:57:10;;;;;;;6.23;5.30;;;20.50;99.90;;;;;;5072148;28;20943;-76
2021/09/08 00:59:41;;;;;;;7.87;7.07;;;20.50;99.90;;;;;;5076409;28;20654;-76
2021/09/08 01:02:07;;;;;;;6.47;5.83;;;20.50;99.90;;;;;;5077296;28;20575;-76
2021/09/08 01:04:33;;;;;;;6.23;5.63;;;20.40;99.90;;;;;;5076550;28;20559;-76
2021/09/08 01:07:04;;;;;;;6.97;6.30;;;20.40;99.90;;;;;;5076075;28;20660;-76
2021/09/08 01:09:32;;;;;;;6.03;5.30;;;20.40;99.90;;;;;;5076620;28;20559;-74
2021/09/08 01:12:00;;;;;;;6.43;5.50;;;20.40;99.90;;;;;;5076727;28;20567;-74
2021/09/08 01:14:27;;;;;;;8.37;6.53;;;20.40;99.90;;;;;;5073085;28;20566;-75
2021/09/08 01:16:56;;;;;;;6.50;5.80;;;20.30;99.90;;;;;;5074574;28;20913;-74
2021/09/08 01:19:22;;;;;;;6.73;6.03;;;20.30;99.90;;;;;;5073953;28;20570;-75
2021/09/08 01:21:49;;;;;;;6.23;5.63;;;20.30;99.90;;;;;;5071261;28;20600;-75
2021/09/08 01:24:15;;;;;;;7.93;5.80;;;20.30;99.90;;;;;;5054421;28;20661;-76
2021/09/08 01:26:42;;;;;;;7.80;6.23;;;20.30;99.90;;;;;;5071812;28;20724;-75
2021/09/08 01:29:09;;;;;;;5.70;5.20;;;20.20;99.90;;;;;;5072617;28;20255;-75
2021/09/08 01:31:36;;;;;;;6.53;5.83;;;20.20;99.90;;;;;;5072293;28;20570;-75
2021/09/08 01:34:02;;;;;;;6.70;5.17;;;20.20;99.90;;;;;;5071744;28;21142;-76
2021/09/08 01:36:28;;;;;;;8.80;7.67;;;20.20;99.90;;;;;;5070156;28;20713;-75
2021/09/08 01:38:54;;;;;;;7.37;5.70;;;20.10;99.90;;;;;;5070567;28;20614;-75
2021/09/08 01:41:19;;;;;;;8.20;6.50;;;20.10;99.90;;;;;;5070417;28;20619;-75
2021/09/08 01:43:46;;;;;;;8.27;6.53;;;20.10;99.90;;;;;;5071856;28;20571;-75
2021/09/08 01:46:22;;;;;;;6.87;6.20;;;20.10;99.90;;;;;;5070279;28;20196;-75
2021/09/08 01:48:49;;;;;;;6.40;5.80;;;20.00;99.90;;;;;;5070401;28;20578;-75
2021/09/08 01:51:15;;;;;;;6.80;6.10;;;20.00;99.90;;;;;;5071506;28;20589;-76
2021/09/08 01:53:41;;;;;;;10.97;6.27;;;20.00;99.90;;;;;;5071569;28;20599;-75
2021/09/08 01:56:08;;;;;;;7.80;5.30;;;20.00;99.90;;;;;;5070153;28;20672;-76
2021/09/08 01:58:34;;;;;;;6.87;5.73;;;20.00;99.90;;;;;;5071003;28;20164;-76
2021/09/08 02:01:01;;;;;;;6.80;6.10;;;20.00;99.90;;;;;;5070346;28;20617;-76
2021/09/08 02:03:27;;;;;;;6.43;5.80;;;19.90;99.90;;;;;;5070096;28;20605;-76
2021/09/08 02:05:52;;;;;;;8.63;6.03;;;19.90;99.90;;;;;;5070138;28;20675;-76
2021/09/08 02:08:18;;;;;;;8.33;6.20;;;19.90;99.90;;;;;;5069834;28;20632;-76
2021/09/08 02:10:44;;;;;;;5.70;5.10;;;19.90;99.90;;;;;;5071595;28;20168;-77
2021/09/08 02:13:11;;;;;;;5.40;4.90;;;19.90;99.90;;;;;;5071282;28;20249;-76
2021/09/08 02:15:37;;;;;;;5.43;4.70;;;19.80;99.90;;;;;;5071295;28;20606;-76
2021/09/08 02:18:04;;;;;;;6.37;5.73;;;19.80;99.90;;;;;;5069599;28;21145;-76
2021/09/08 02:20:30;;;;;;;6.70;5.63;;;19.80;99.90;;;;;;5069943;28;20574;-76
2021/09/08 02:22:55;;;;;;;7.37;6.03;;;19.70;99.90;;;;;;5069988;28;20567;-76
2021/09/08 02:25:21;;;;;;;6.33;5.73;;;19.70;99.90;;;;;;5069867;28;20665;-76
2021/09/08 02:27:47;;;;;;;9.40;5.90;;;19.70;99.90;;;;;;5069377;28;20164;-76
2021/09/08 02:30:13;;;;;;;6.07;5.43;;;19.60;99.90;;;;;;5071677;28;20176;-76
2021/09/08 02:32:39;;;;;;;7.73;7.03;;;19.60;99.90;;;;;;5053489;28;20176;-76
2021/09/08 02:35:06;;;;;;;7.63;6.00;;;19.50;99.90;;;;;;5071275;28;20590;-76
2021/09/08 02:37:32;;;;;;;6.17;5.50;;;19.50;99.90;;;;;;5070930;28;20180;-77
2021/09/08 02:39:58;;;;;;;7.57;6.73;;;19.50;99.90;;;;;;5053097;28;20964;-77
2021/09/08 02:42:23;;;;;;;7.53;6.40;;;19.50;99.90;;;;;;5070038;28;20517;-77
2021/09/08 02:44:49;;;;;;;6.40;5.77;;;19.40;99.90;;;;;;5073017;28;20279;-77
2021/09/08 02:47:16;;;;;;;6.70;5.83;;;19.40;99.90;;;;;;5074351;28;20204;-77
2021/09/08 02:49:42;;;;;;;9.00;5.20;;;19.30;99.90;;;;;;5074585;28;20628;-76
2021/09/08 02:52:08;;;;;;;9.70;6.10;;;19.30;99.90;;;;;;5075027;28;20921;-77
2021/09/08 02:54:34;;;;;;;8.53;6.83;;;19.20;99.90;;;;;;5074313;28;20574;-77
2021/09/08 02:57:00;;;;;;;6.03;5.33;;;19.20;99.90;;;;;;5074526;28;20559;-77
2021/09/08 02:59:26;;;;;;;6.93;6.23;;;19.20;99.90;;;;;;5074597;28;20571;-77
2021/09/08 03:01:52;;;;;;;8.50;7.47;;;19.10;99.90;;;;;;5073572;28;20578;-77
2021/09/08 03:04:18;;;;;;;9.77;6.33;;;19.10;99.90;;;;;;5074588;28;20183;-77
2021/09/08 03:06:44;;;;;;;6.43;5.80;;;19.10;99.90;;;;;;5072801;28;20228;-76
2021/09/08 03:09:09;;;;;;;11.37;6.63;;;19.10;99.90;;;;;;5074506;28;20165;-77
2021/09/08 03:11:35;;;;;;;7.40;6.33;;;19.00;99.90;;;;;;5056373;28;20571;-77
2021/09/08 03:14:01;;;;;;;7.07;6.40;;;19.00;99.90;;;;;;5073033;28;20176;-76
2021/09/08 03:16:27;;;;;;;7.30;6.57;;;19.00;99.90;;;;;;5073876;28;20545;-76
2021/09/08 03:18:52;;;;;;;7.37;5.70;;;19.00;99.90;;;;;;5074279;28;20176;-76
2021/09/08 03:21:18;;;;;;;7.20;6.50;;;19.10;99.90;;;;;;5074194;28;20234;-75
2021/09/08 03:23:44;;;;;;;7.60;6.20;;;19.10;99.90;;;;;;5074055;28;20199;-76
2021/09/08 03:26:09;;;;;;;7.73;6.37;;;19.10;99.90;;;;;;5072433;28;20687;-76
2021/09/08 03:28:35;;;;;;;8.47;5.77;;;19.10;99.90;;;;;;5073766;28;20215;-76
2021/09/08 03:31:01;;;;;;;6.70;5.83;;;19.10;99.90;;;;;;5072596;28;20179;-76
2021/09/08 03:33:26;;;;;;;7.67;6.50;;;19.10;99.90;;;;;;5072915;28;20204;-76
2021/09/08 03:35:52;;;;;;;7.60;6.40;;;19.00;99.90;;;;;;5074084;28;20215;-76
2021/09/08 03:38:18;;;;;;;6.90;6.20;;;19.00;99.90;;;;;;5072157;28;20226;-77
2021/09/08 03:40:44;;;;;;;6.93;5.93;;;19.00;99.90;;;;;;5072963;28;20168;-76
2021/09/08 03:43:09;;;;;;;7.40;5.80;;;19.00;99.90;;;;;;5072515;28;20594;-76
2021/09/08 03:45:35;;;;;;;8.30;6.23;;;19.00;99.90;;;;;;5073541;28;20299;-76
2021/09/08 03:48:03;;;;;;;6.43;5.83;;;19.00;99.90;;;;;;5073444;28;20176;-77
2021/09/08 03:50:30;;;;;;;8.20;5.97;;;18.90;99.90;;;;;;5074068;28;20175;-77
2021/09/08 03:52:56;;;;;;;8.37;7.53;;;18.90;99.90;;;;;;5073496;28;20575;-76
2021/09/08 03:55:21;;;;;;;7.33;6.60;;;18.90;99.90;;;;;;5072676;28;20827;-76
2021/09/08 03:57:47;;;;;;;7.33;6.40;;;18.90;99.90;;;;;;5071112;28;20646;-76
2021/09/08 04:00:16;;;;;;;7.40;6.60;;;18.90;99.90;;;;;;5072279;28;20168;-76
2021/09/08 04:02:42;;;;;;;10.33;7.47;;;18.90;99.90;;;;;;5073469;28;20198;-77
2021/09/08 04:05:10;;;;;;;8.03;7.23;;;18.80;99.90;;;;;;5073283;28;21080;-76
2021/09/08 04:07:36;;;;;;;7.17;6.47;;;18.80;99.90;;;;;;5073054;28;20567;-77
2021/09/08 04:10:02;;;;;;;6.83;6.13;;;18.90;99.90;;;;;;5072251;28;20925;-77
2021/09/08 04:12:27;;;;;;;7.60;6.90;;;18.80;99.90;;;;;;5073970;28;20157;-76
2021/09/08 04:14:53;;;;;;;9.20;6.00;;;18.80;99.90;;;;;;5090055;22;20665;-75
2021/09/08 04:17:20;;;;;;;7.90;6.67;;;18.80;99.90;;;;;;5075563;28;20250;-75
2021/09/08 04:19:45;;;;;;;6.90;6.23;;;18.70;99.90;;;;;;5072828;28;20554;-75
2021/09/08 04:22:11;;;;;;;6.67;5.20;;;18.70;99.90;;;;;;5073382;28;20612;-75
2021/09/08 04:24:37;;;;;;;6.77;5.93;;;18.70;99.90;;;;;;5072834;28;20202;-75
2021/09/08 04:27:03;;;;;;;7.43;6.30;;;18.60;99.90;;;;;;5072611;28;20771;-74
2021/09/08 04:29:28;;;;;;;7.60;6.90;;;18.60;99.90;;;;;;5072634;28;20165;-75
2021/09/08 04:31:54;;;;;;;7.90;7.00;;;18.60;99.90;;;;;;5073058;28;20569;-75
2021/09/08 04:34:20;;;;;;;8.70;7.30;;;18.50;99.90;;;;;;5071528;28;20160;-75
2021/09/08 04:36:45;;;;;;;9.60;6.80;;;18.50;99.90;;;;;;5071324;28;20199;-75
2021/09/08 04:39:11;;;;;;;7.40;6.43;;;18.50;99.90;;;;;;5072452;28;20691;-75
2021/09/08 04:41:37;;;;;;;7.80;7.00;;;18.40;99.90;;;;;;5073100;28;20239;-75
2021/09/08 04:44:03;;;;;;;8.63;6.90;;;18.40;99.90;;;;;;5074915;28;20924;-75
2021/09/08 04:46:29;;;;;;;7.87;7.10;;;18.40;99.90;;;;;;5072024;28;20620;-75
2021/09/08 04:48:55;;;;;;;7.37;6.67;;;18.30;99.90;;;;;;5072417;28;20663;-74
2021/09/08 04:51:21;;;;;;;7.93;6.80;;;18.30;99.90;;;;;;5071088;28;20720;-75
2021/09/08 04:53:47;;;;;;;8.43;7.37;;;18.30;99.90;;;;;;5072305;28;20662;-75
2021/09/08 04:56:13;;;;;;;7.57;6.87;;;18.30;99.90;;;;;;5072067;28;20200;-75
2021/09/08 04:58:39;;;;;;;7.53;6.57;;;18.20;99.90;;;;;;5071881;28;20217;-74
2021/09/08 05:01:05;;;;;;;12.83;7.67;;;18.20;99.90;;;;;;5072051;28;20623;-75
2021/09/08 05:03:32;;;;;;;7.87;6.93;;;18.20;99.90;;;;;;5072317;28;21185;-75
2021/09/08 05:05:59;;;;;;;10.60;9.10;;;18.20;99.90;;;;;;5071378;28;20289;-75
2021/09/08 05:08:24;;;;;;;8.47;6.93;;;18.20;99.90;;;;;;5071343;28;20574;-75
2021/09/08 05:10:50;;;;;;;8.93;7.50;;;18.20;99.90;;;;;;5071929;28;20920;-75
2021/09/08 05:13:16;;;;;;;8.93;8.00;;;18.20;99.90;;;;;;5071973;28;20176;-75
2021/09/08 05:15:41;;;;;;;13.00;8.53;;;18.20;99.90;;;;;;5071572;28;20211;-75
2021/09/08 05:18:07;;;;;;;9.17;7.10;;;18.20;99.90;;;;;;5071784;28;20215;-75
2021/09/08 05:20:33;;;;;;;10.80;8.33;;;18.20;99.90;;;;;;5076205;28;20930;-75
2021/09/08 05:22:59;;;;;;;8.77;7.87;;;18.30;99.90;;;;;;5072020;28;20786;-75
2021/09/08 05:25:24;;;;;;;8.47;7.60;;;18.30;99.90;;;;;;5070635;28;20200;-75
2021/09/08 05:27:50;;;;;;;8.87;7.33;;;18.30;99.90;;;;;;5069944;28;20165;-75
2021/09/08 05:30:16;;;;;;;9.63;7.50;;;18.40;99.90;;;;;;5071738;28;20587;-75
2021/09/08 05:32:41;;;;;;;11.37;7.70;;;18.40;99.90;;;;;;5071574;28;20179;-75
2021/09/08 05:35:12;;;;;;;9.53;8.00;;;18.50;99.90;;;;;;5070526;28;20192;-74
2021/09/08 05:37:38;;;;;;;9.37;8.27;;;18.50;99.90;;;;;;5071311;28;20199;-74
2021/09/08 05:40:04;;;;;;;10.37;8.43;;;18.50;99.90;;;;;;5071690;28;20700;-74
2021/09/08 05:42:30;;;;;;;9.87;7.27;;;18.50;99.90;;;;;;5071314;28;20600;-74
2021/09/08 05:44:56;;;;;;;7.00;6.40;;;18.60;99.90;;;;;;5071574;28;21149;-74
2021/09/08 05:47:21;;;;;;;7.40;6.70;;;18.70;99.90;;;;;;5069996;28;20612;-74
2021/09/08 05:49:47;;;;;;;7.67;6.60;;;18.70;99.90;;;;;;5071599;28;20202;-74
2021/09/08 05:52:13;;;;;;;8.83;7.37;;;18.80;99.90;;;;;;5071436;28;20558;-74
2021/09/08 05:54:38;;;;;;;9.23;8.10;;;18.80;99.90;;;;;;5070519;28;20172;-75
2021/09/08 05:57:05;;;;;;;6.90;6.10;;;18.90;99.90;;;;;;5076558;28;20168;-75
2021/09/08 05:59:31;;;;;;;7.57;6.70;;;18.90;99.90;;;;;;5071315;28;20518;-75
2021/09/08 06:01:56;;;;;;;8.70;7.50;;;19.00;99.90;;;;;;5070251;28;20574;-75
2021/09/08 06:04:22;;;;;;;10.63;8.47;;;19.00;99.90;;;;;;5071071;28;20204;-75
2021/09/08 06:06:47;;;;;;;8.60;7.67;;;19.10;99.90;;;;;;5070936;28;20192;-75
2021/09/08 06:09:13;;;;;;;7.73;6.93;;;19.10;99.90;;;;;;5071182;28;20168;-75
2021/09/08 06:11:39;;;;;;;8.77;7.30;;;19.10;99.90;;;;;;5071308;28;20194;-74
2021/09/08 06:14:07;;;;;;;10.50;7.93;;;19.30;99.90;;;;;;5071216;28;20696;-74
2021/09/08 06:16:32;;;;;;;7.00;6.30;;;19.30;99.90;;;;;;5070615;28;20215;-74
2021/09/08 06:18:58;;;;;;;10.27;6.80;;;19.30;99.90;;;;;;5072389;28;20566;-75
2021/09/08 06:21:24;;;;;;;7.73;6.77;;;19.50;99.90;;;;;;5075270;28;20169;-75
2021/09/08 06:23:49;;;;;;;11.10;7.73;;;19.50;99.90;;;;;;5075211;28;20172;-75
2021/09/08 06:26:15;;;;;;;9.10;7.80;;;19.60;99.90;;;;;;5074951;28;20247;-75
2021/09/08 06:28:41;;;;;;;9.77;8.60;;;19.70;99.90;;;;;;5074803;28;20198;-76
2021/09/08 06:31:07;;;;;;;9.10;7.23;;;19.80;99.90;;;;;;5073954;28;20172;-75
2021/09/08 06:33:33;;;;;;;9.37;7.70;;;19.90;99.90;;;;;;5080372;28;20167;-75
2021/09/08 06:35:58;;;;;;;9.17;7.27;;;20.00;99.90;;;;;;5074968;28;20594;-75
2021/09/08 06:38:24;;;;;;;9.67;7.47;;;20.00;99.90;;;;;;5074615;28;20214;-75
2021/09/08 06:40:51;;;;;;;11.67;8.10;;;20.20;99.90;;;;;;5074925;28;20600;-75
2021/09/08 06:43:17;;;;;;;12.53;7.60;;;20.20;99.90;;;;;;5074850;28;20528;-77
2021/09/08 06:45:43;;;;;;;9.47;8.47;;;20.30;99.90;;;;;;5074463;28;20625;-77
2021/09/08 06:48:08;;;;;;;9.70;8.37;;;20.40;99.90;;;;;;5074596;28;20161;-77
2021/09/08 06:50:34;;;;;;;9.10;7.60;;;20.60;99.90;;;;;;5073499;28;20167;-77
2021/09/08 06:53:00;;;;;;;11.77;7.53;;;20.90;99.90;;;;;;5074743;28;20168;-76
2021/09/08 06:55:26;;;;;;;7.77;7.07;;;21.50;99.90;;;;;;5073010;28;20304;-77
2021/09/08 06:57:52;;;;;;;8.60;6.93;;;22.20;99.90;;;;;;5074166;28;20665;-77
2021/09/08 07:00:18;;;;;;;7.77;6.90;;;23.10;99.90;;;;;;5074293;28;20168;-77
2021/09/08 07:02:43;;;;;;;9.10;7.07;;;23.90;99.90;;;;;;5073197;28;20229;-77
2021/09/08 07:05:09;;;;;;;7.87;7.10;;;24.70;99.90;;;;;;5072673;28;20285;-77
2021/09/08 07:07:35;;;;;;;7.13;6.33;;;25.50;99.90;;;;;;5074210;28;20171;-78
2021/09/08 07:10:01;;;;;;;7.87;7.00;;;26.20;99.90;;;;;;5078803;28;20590;-76
2021/09/08 07:12:26;;;;;;;8.20;7.40;;;26.80;99.90;;;;;;5073058;28;20505;-77
2021/09/08 07:14:52;;;;;;;8.33;7.03;;;27.50;99.90;;;;;;5072946;28;20200;-77
2021/09/08 07:17:17;;;;;;;12.30;8.57;;;28.00;99.90;;;;;;5073780;28;20169;-77
2021/09/08 07:19:43;;;;;;;8.77;7.97;;;28.20;99.90;;;;;;5073046;28;20177;-77
2021/09/08 07:22:09;;;;;;;7.97;5.93;;;28.50;99.90;;;;;;5074196;28;20168;-77
2021/09/08 07:24:35;;;;;;;7.23;6.50;;;28.70;99.90;;;;;;5074013;28;20263;-77
2021/09/08 07:27:00;;;;;;;8.07;7.10;;;28.90;97.80;;;;;;5055544;28;20610;-77
2021/09/08 07:29:26;;;;;;;7.70;6.90;;;29.20;98.20;;;;;;5073254;28;20195;-78
2021/09/08 07:31:52;;;;;;;6.23;5.70;;;29.50;97.20;;;;;;5073895;28;21180;-77
2021/09/08 07:34:18;;;;;;;8.20;7.03;;;30.00;97.80;;;;;;5074196;28;20532;-77
2021/09/08 07:36:44;;;;;;;7.87;6.80;;;30.20;94.90;;;;;;5072157;28;20618;-77
2021/09/08 07:39:09;;;;;;;7.03;6.43;;;30.30;94.00;;;;;;5072556;28;20573;-77
2021/09/08 07:41:35;;;;;;;6.43;5.93;;;30.60;93.90;;;;;;5056065;28;20256;-77
2021/09/08 07:44:01;;;;;;;8.67;6.70;;;30.80;93.20;;;;;;5073502;28;20255;-77
2021/09/08 07:46:26;;;;;;;7.13;6.53;;;30.90;91.10;;;;;;5075774;28;20202;-77
2021/09/08 07:48:52;;;;;;;6.93;6.33;;;31.20;92.00;;;;;;5073526;28;20196;-77
2021/09/08 07:51:18;;;;;;;9.20;8.30;;;31.50;90.70;;;;;;5073641;28;20174;-77
2021/09/08 07:53:44;;;;;;;6.80;6.10;;;31.40;85.30;;;;;;5073644;28;20266;-77
2021/09/08 07:56:10;;;;;;;7.03;6.43;;;31.40;83.20;;;;;;5072421;28;20959;-77
2021/09/08 07:58:36;;;;;;;11.20;6.83;;;31.30;81.50;;;;;;5071796;28;20179;-78
2021/09/08 08:01:02;;;;;;;7.00;6.30;;;31.20;80.00;;;;;;5073832;28;20203;-78
2021/09/08 08:03:29;;;;;;;8.23;7.23;;;31.20;81.40;;;;;;5072403;28;20562;-77
2021/09/08 08:05:55;;;;;;;7.97;6.10;;;31.30;80.00;;;;;;5072235;28;20718;-78
2021/09/08 08:08:21;;;;;;;7.90;7.20;;;31.60;80.60;;;;;;5071657;28;20746;-78
2021/09/08 08:10:47;;;;;;;6.07;5.57;;;31.80;77.70;;;;;;5072125;28;20618;-78
2021/09/08 08:13:13;;;;;;;6.97;6.33;;;31.80;78.50;;;;;;5073299;28;20171;-77
2021/09/08 08:15:39;;;;;;;6.80;6.20;;;31.80;78.60;;;;;;5071569;28;20717;-77
2021/09/08 08:18:04;;;;;;;7.10;6.40;;;32.00;77.60;;;;;;5071652;28;21008;-77
2021/09/08 08:20:30;;;;;;;6.40;5.90;;;32.20;76.90;;;;;;5073211;28;20177;-77
2021/09/08 08:22:56;;;;;;;7.00;6.33;;;32.60;78.40;;;;;;5077445;28;20167;-77
2021/09/08 08:25:30;;;;;;;7.10;6.50;;;32.90;75.50;;;;;;5071591;28;20196;-78
2021/09/08 08:27:57;;;;;;;6.60;6.00;;;33.30;75.00;;;;;;5071706;28;20228;-77
2021/09/08 08:30:24;;;;;;;6.40;5.67;;;33.70;75.70;;;;;;5072162;28;20571;-77
2021/09/08 08:32:50;;;;;;;5.60;5.10;;;34.00;73.90;;;;;;5073153;28;20577;-77
2021/09/08 08:35:16;;;;;;;6.10;5.50;;;34.40;72.80;;;;;;5055288;28;20617;-77
2021/09/08 08:37:43;;;;;;;5.97;5.53;;;34.60;70.10;;;;;;5071428;28;21219;-77
2021/09/08 08:40:10;;;;;;;12.73;6.30;;;34.50;68.90;;;;;;5071386;28;20583;-77
2021/09/08 08:42:37;;;;;;;6.57;5.83;;;34.70;69.00;;;;;;5072821;28;20575;-77
2021/09/08 08:45:04;;;;;;;6.60;6.10;;;35.00;69.00;;;;;;5072302;28;20956;-78
2021/09/08 08:47:31;;;;;;;7.07;6.47;;;35.50;67.50;;;;;;5072180;28;20575;-78
2021/09/08 08:49:58;;;;;;;5.53;5.00;;;35.80;65.90;;;;;;5071174;28;20563;-77
2021/09/08 08:52:24;;;;;;;8.90;7.07;;;35.90;65.80;;;;;;5071108;28;20609;-78
2021/09/08 08:54:50;;;;;;;6.90;5.10;;;36.40;63.90;;;;;;5072274;28;20626;-77
2021/09/08 08:57:16;;;;;;;6.97;6.27;;;36.70;63.50;;;;;;5053955;28;20168;-78
2021/09/08 08:59:44;;;;;;;6.60;6.00;;;36.80;61.10;;;;;;5074374;28;20579;-78
2021/09/08 09:02:25;;;;;;;6.63;6.03;;;36.90;60.00;;;;;;5071055;28;20598;-78
2021/09/08 09:04:54;;;;;;;6.70;6.10;;;36.90;58.10;;;;;;5071283;28;20614;-78
2021/09/08 09:07:22;;;;;;;7.33;6.63;;;37.00;58.30;;;;;;5071657;28;20977;-77
2021/09/08 09:10:03;;;;;;;6.30;5.80;;;37.00;57.00;;;;;;5071122;28;20595;-78
2021/09/08 09:12:38;;;;;;;6.20;5.60;;;36.90;55.90;;;;;;5071924;28;20741;-78
2021/09/08 09:15:10;;;;;;;6.57;5.97;;;36.80;56.30;;;;;;5071779;28;20606;-77
2021/09/08 09:17:37;;;;;;;6.57;5.97;;;36.80;55.80;;;;;;5071642;28;20567;-77
2021/09/08 09:20:13;;;;;;;6.77;6.17;;;36.90;56.00;;;;;;5054211;28;20565;-77
2021/09/08 09:22:43;;;;;;;6.00;5.50;;;36.80;55.60;;;;;;5070542;28;20578;-77
2021/09/08 09:25:12;;;;;;;5.73;5.23;;;36.90;55.30;;;;;;5070365;28;20612;-78
2021/09/08 09:27:44;;;;;;;6.20;5.70;;;37.00;56.40;;;;;;5067989;28;20567;-78
2021/09/08 09:30:15;;;;;;;7.00;6.30;;;37.50;56.60;;;;;;5053126;28;20563;-77
2021/09/08 09:32:43;;;;;;;5.97;5.47;;;37.90;54.70;;;;;;5071499;28;20567;-77
2021/09/08 09:35:13;;;;;;;5.87;5.43;;;38.00;54.90;;;;;;5074872;28;20587;-77
2021/09/08 09:37:50;;;;;;;6.47;5.90;;;38.30;54.80;;;;;;5070095;28;20574;-77
2021/09/08 09:40:21;;;;;;;7.50;6.90;;;38.20;51.00;;;;;;5070397;28;20598;-77
2021/09/08 09:42:47;;;;;;;8.67;8.00;;;37.90;52.10;;;;;;5071310;28;20562;-77
2021/09/08 09:45:14;;;;;;;6.90;6.30;;;37.40;50.60;;;;;;5051216;28;20603;-77
2021/09/08 09:47:44;;;;;;;6.97;6.47;;;37.10;51.60;;;;;;5049284;28;20165;-77
2021/09/08 09:50:21;;;;;;;6.83;6.23;;;36.90;51.50;;;;;;5050923;28;20682;-77
2021/09/08 09:52:48;;;;;;;7.37;6.77;;;37.00;52.10;;;;;;5051013;28;20571;-77
2021/09/08 09:55:15;;;;;;;6.77;6.17;;;37.30;52.80;;;;;;5049631;28;20971;-77
2021/09/08 09:57:42;;;;;;;5.87;5.47;;;37.60;51.90;;;;;;5051101;28;20927;-77
2021/09/08 10:00:08;;;;;;;7.83;7.17;;;37.70;51.70;;;;;;5049848;28;20576;-77
2021/09/08 10:02:38;;;;;;;7.40;6.43;;;37.90;51.10;;;;;;5059254;28;20574;-77
2021/09/08 10:05:04;;;;;;;5.90;5.40;;;38.00;50.80;;;;;;5069642;28;20748;-78
2021/09/08 10:07:30;;;;;;;5.30;4.87;;;38.10;50.10;;;;;;5069153;28;20676;-77
2021/09/08 10:10:40;;;;;;;6.17;5.67;;;38.00;49.60;;;;;;5052915;28;20578;-78
2021/09/08 10:13:15;;;;;;;5.73;5.20;;;37.70;49.10;;;;;;5011966;28;20200;-78
2021/09/08 10:15:41;;;;;;;7.73;5.63;;;37.60;49.30;;;;;;5009070;28;21047;-76
2021/09/08 10:18:10;;;;;;;6.73;6.10;;;37.50;49.40;;;;;;5042020;28;20589;-77
2021/09/08 10:20:36;;;;;;;5.90;5.40;;;37.40;48.90;;;;;;5070725;28;20977;-77
2021/09/08 10:23:15;;;;;;;6.83;6.23;;;37.20;48.90;;;;;;5071065;28;20567;-76
2021/09/08 10:25:48;;;;;;;5.80;5.30;;;37.00;48.20;;;;;;5070613;28;20629;-76
2021/09/08 10:28:16;;;;;;;5.90;5.43;;;36.70;48.90;;;;;;5069409;28;20575;-77
2021/09/08 10:30:43;;;;;;;5.30;4.90;;;36.70;49.30;;;;;;5070656;28;20594;-75
2021/09/08 10:33:09;;;;;;;6.00;5.60;;;36.70;50.00;;;;;;5086586;28;20593;-75
2021/09/08 10:35:40;;;;;;;5.73;5.33;;;36.80;49.60;;;;;;5070886;28;20769;-75
2021/09/08 10:38:18;;;;;;;6.77;6.27;;;36.90;49.40;;;;;;5070768;28;20906;-75
2021/09/08 10:40:46;;;;;;;6.60;6.03;;;36.90;49.40;;;;;;5086547;28;20665;-75
2021/09/08 10:43:13;;;;;;;5.97;5.47;;;36.90;49.10;;;;;;5072780;28;20574;-77
2021/09/08 10:45:50;;;;;;;6.50;5.80;;;36.80;49.00;;;;;;5089715;28;20632;-76
2021/09/08 10:48:35;;;;;;;7.17;6.57;;;36.80;48.70;;;;;;5077153;28;20628;-76
2021/09/08 10:51:01;;;;;;;6.77;6.23;;;36.50;47.30;;;;;;5074914;28;20574;-75
2021/09/08 10:53:32;;;;;;;6.23;5.67;;;36.20;48.40;;;;;;5070855;28;20605;-75
2021/09/08 10:55:58;;;;;;;6.40;5.80;;;36.20;47.80;;;;;;5070483;28;20598;-75
2021/09/08 10:58:44;;;;;;;5.37;4.87;;;36.10;48.80;;;;;;5070380;28;20949;-76
2021/09/08 11:01:15;;;;;;;7.00;6.40;;;36.20;49.20;;;;;;5073139;28;20587;-75
2021/09/08 11:03:43;;;;;;;6.33;5.80;;;36.30;48.70;;;;;;5070840;28;20947;-75
2021/09/08 11:06:08;;;;;;;6.43;5.93;;;36.20;48.50;;;;;;5073125;28;20980;-75
2021/09/08 11:08:34;;;;;;;6.87;6.27;;;36.00;47.90;;;;;;5073821;28;20550;-76
2021/09/08 11:11:06;;;;;;;6.80;6.20;;;35.70;47.60;;;;;;5074440;28;20196;-76
2021/09/08 11:13:33;;;;;;;6.27;5.77;;;35.50;47.90;;;;;;5073942;28;20640;-76
2021/09/08 11:15:58;;;;;;;6.23;5.73;;;35.40;48.30;;;;;;5070904;28;20610;-76
2021/09/08 11:18:35;;;;;;;6.60;6.10;;;35.30;48.50;;;;;;5070648;28;20562;-76
2021/09/08 11:21:05;;;;;;;7.37;6.50;;;35.30;48.50;;;;;;5073630;28;20639;-77
2021/09/08 11:23:32;;;;;;;7.50;6.77;;;35.20;48.00;;;;;;5074101;28;20566;-76
2021/09/08 11:26:09;;;;;;;5.97;5.50;;;34.80;47.90;;;;;;5077636;28;20665;-76
2021/09/08 11:28:36;;;;;;;5.83;5.37;;;34.70;48.40;;;;;;5073466;28;20570;-76
2021/09/08 11:31:21;;;;;;;7.20;6.53;;;34.70;48.70;;;;;;5073779;28;20665;-76
2021/09/08 11:33:47;;;;;;;5.70;5.30;;;34.60;48.50;;;;;;5072722;28;20567;-76
2021/09/08 11:36:18;;;;;;;6.70;6.17;;;34.60;48.80;;;;;;5072387;28;20602;-76
2021/09/08 11:38:50;;;;;;;6.73;6.13;;;34.50;48.20;;;;;;5073593;28;20206;-77
2021/09/08 11:41:17;;;;;;;6.57;5.97;;;34.30;48.30;;;;;;5073708;28;20570;-76
2021/09/08 11:43:48;;;;;;;7.73;6.40;;;34.30;48.20;;;;;;5073828;28;21116;-77
2021/09/08 11:46:21;;;;;;;8.60;5.83;;;34.20;48.60;;;;;;5073391;28;20634;-76
2021/09/08 11:48:49;;;;;;;6.10;5.60;;;34.20;48.90;;;;;;5073578;28;20602;-77
2021/09/08 11:51:17;;;;;;;5.27;4.83;;;34.20;49.10;;;;;;5073517;28;20579;-76
2021/09/08 11:53:43;;;;;;;5.63;5.23;;;34.20;48.70;;;;;;5073323;28;20559;-77
2021/09/08 11:56:18;;;;;;;7.20;6.60;;;34.10;48.70;;;;;;5055207;28;20617;-77
2021/09/08 11:58:48;;;;;;;6.53;5.93;;;34.00;48.80;;;;;;5073471;28;20589;-77
2021/09/08 12:01:14;;;;;;;7.13;6.53;;;34.00;49.00;;;;;;5077611;28;20570;-76
2021/09/08 12:03:43;;;;;;;6.07;5.50;;;34.00;49.10;;;;;;5073490;28;20577;-77
2021/09/08 12:06:17;;;;;;;7.23;5.03;;;33.90;48.90;;;;;;5072647;28;20636;-77
2021/09/08 12:08:47;;;;;;;6.73;6.03;;;33.80;48.90;;;;;;5073036;28;20586;-77
2021/09/08 12:11:28;;;;;;;6.17;5.67;;;33.60;49.20;;;;;;5071789;28;20597;-77
2021/09/08 12:13:54;;;;;;;7.00;6.40;;;33.60;49.30;;;;;;5073387;28;20571;-77
2021/09/08 12:16:38;;;;;;;6.30;5.70;;;33.60;49.20;;;;;;5072025;28;20625;-77
2021/09/08 12:19:11;;;;;;;6.40;5.40;;;33.40;49.20;;;;;;5073223;28;20611;-77
2021/09/08 12:21:37;;;;;;;5.73;5.23;;;33.30;49.60;;;;;;5071651;28;20579;-74
2021/09/08 12:24:25;;;;;;;6.90;6.30;;;33.40;49.60;;;;;;5073165;28;20582;-74
2021/09/08 12:26:52;;;;;;;6.03;5.20;;;33.40;49.40;;;;;;5072367;28;20214;-74
2021/09/08 12:29:17;;;;;;;5.87;4.73;;;33.40;49.20;;;;;;5071556;28;20576;-74
2021/09/08 12:32:12;;;;;;;5.67;5.17;;;33.40;49.50;;;;;;5071378;28;20563;-74
2021/09/08 12:34:44;;;;;;;5.13;4.73;;;33.40;49.40;;;;;;5054287;28;20187;-74
2021/09/08 12:37:10;;;;;;;6.07;5.57;;;33.40;49.30;;;;;;5074035;28;20559;-75
2021/09/08 12:39:47;;;;;;;5.67;5.17;;;33.30;49.10;;;;;;5073958;28;20610;-74
2021/09/08 12:42:20;;;;;;;6.03;5.43;;;33.00;49.10;;;;;;5072317;28;20559;-74
2021/09/08 12:44:47;;;;;;;5.40;4.90;;;33.00;49.00;;;;;;5072340;28;20593;-74
2021/09/08 12:47:20;;;;;;;6.67;5.97;;;33.00;49.00;;;;;;5071836;28;20629;-74